Latest Weather Observations for Brisbane Airport

IDQ60901

Issued at 8:05 pm EST Thursday 21 August 2014 (issued every 10 minutes, with the page automatically refreshed every 10 minutes)

About weather observations | Map of Brisbane area stations | Latest observations for Brisbane area | Other Formats
Station Details ID: 040842 Name: BRISBANE AERO Lat: -27.39 Lon: 153.13 Height: 4.51 m
Data from the previous 72 hours. | See also: Recent months at Brisbane Airport
Date/Time
EST
Tmp

°C
App
Tmp
°C
Dew
Point
°C
Rel
Hum
%
Delta-T

°C
Wind Press
QNH
hPa
Press
MSL
hPa
Rain
since
9 am
mm
Dir
 
Spd
km/h
Gust
km/h
Spd
kts
Gust
kts
21/08:00pm 16.1 14.0 13.6 85 1.4 SSE 17 33 9 18 1023.8 - 0.0
21/07:30pm 16.7 14.4 13.1 79 2.0 SSE 17 32 9 17 1023.1 - 0.0
21/07:00pm 16.8 15.3 13.2 79 2.0 SE 13 22 7 12 1023.2 - 0.0
21/06:30pm 17.0 14.2 12.7 76 2.4 SSE 19 32 10 17 1022.8 - 0.0
21/06:00pm 17.9 14.8 11.7 67 3.4 SE 19 32 10 17 1022.4 1022.4 0.0
21/05:30pm 17.9 14.5 11.2 65 3.6 SE 20 33 11 18 1022.2 - 0.0
21/05:00pm 18.2 14.5 11.6 65 3.6 SSE 22 35 12 19 1022.0 - 0.0
21/04:30pm 19.2 15.9 11.5 61 4.2 SE 20 33 11 18 1021.4 - 0.0
21/04:00pm 19.2 15.3 12.0 63 4.0 ESE 24 37 13 20 1020.8 - 0.0
21/03:30pm 19.8 14.8 9.6 51 5.4 SE 26 41 14 22 1020.7 - 0.0
21/03:00pm 20.5 16.5 10.5 52 5.4 SE 22 37 12 20 1020.9 1020.9 0.0
21/02:30pm 20.4 16.3 10.2 52 5.5 SE 22 33 12 18 1020.8 - 0.0
21/02:00pm 20.5 16.6 9.6 49 5.8 ESE 20 41 11 22 1020.8 - 0.0
21/01:30pm 21.2 17.6 9.8 48 6.1 SSE 19 30 10 16 1020.9 - 0.0
21/01:00pm 21.4 16.7 9.2 45 6.5 SE 24 37 13 20 1021.1 - 0.0
21/12:30pm 20.5 17.2 9.4 49 5.9 SE 17 28 9 15 1021.5 - 0.0
21/12:00pm 21.1 17.2 9.5 47 6.2 SSE 20 37 11 20 1021.9 1021.9 0.0
21/11:30am 20.5 16.8 9.6 49 5.8 SSE 19 35 10 19 1022.4 - 0.0
21/11:00am 20.9 17.1 9.7 48 6.0 SSE 20 37 11 20 1022.7 - 0.0
21/10:30am 19.9 16.0 9.3 50 5.6 SSE 20 39 11 21 1022.9 - 0.0
21/10:00am 20.1 15.8 9.3 49 5.7 SSE 22 35 12 19 1022.9 - 0.0
21/09:30am 18.3 15.4 9.8 57 4.5 S 15 26 8 14 1023.1 - 0.0
21/09:00am 17.4 14.5 9.5 59 4.1 S 15 22 8 12 1023.0 1023.0 0.2
21/08:30am 16.4 12.5 9.4 63 3.6 SSW 20 32 11 17 1022.9 - 0.2
21/08:00am 15.4 11.7 9.6 68 3.0 S 19 28 10 15 1022.6 - 0.0
21/07:30am 14.2 10.8 9.1 71 2.6 SSW 17 24 9 13 1022.4 - 0.0
21/07:00am 13.3 9.8 8.9 74 2.2 SSW 17 24 9 13 1022.3 - 0.0
21/06:30am 12.2 9.1 9.0 81 1.6 SSW 15 19 8 10 1022.4 - 0.0
21/06:00am 12.5 9.5 9.1 80 1.7 SSW 15 20 8 11 1022.1 1022.1 0.0
21/05:30am 11.7 8.3 9.3 85 1.2 SSW 17 20 9 11 1021.9 - 0.0
21/05:00am 11.5 8.9 9.5 87 1.0 SSW 13 17 7 9 1021.8 - 0.0
21/04:30am 12.2 9.2 9.4 83 1.4 SSW 15 20 8 11 1021.4 - 0.0
21/04:00am 12.8 11.1 9.7 81 1.6 S 9 11 5 6 1021.5 - 0.0
21/03:30am 12.9 10.7 9.3 79 1.8 SSW 11 13 6 7 1021.3 - 0.0
21/03:00am 13.1 10.5 9.3 78 1.9 SSW 13 17 7 9 1021.3 1021.3 0.0
21/02:30am 12.4 9.7 8.8 79 1.8 SSW 13 17 7 9 1021.6 - 0.0
21/02:00am 13.1 10.3 8.7 74 2.2 SSW 13 17 7 9 1021.7 - 0.0
21/01:30am 13.0 10.6 8.6 74 2.2 SSW 11 15 6 8 1021.7 - 0.0
21/01:00am 13.2 10.5 8.8 74 2.2 SSW 13 17 7 9 1022.0 - 0.0
21/12:30am 12.9 10.2 9.1 78 1.9 SSW 13 17 7 9 1021.9 - 0.0
21/12:00am 14.2 12.4 9.5 73 2.4 S 9 15 5 8 1022.0 1022.0 0.0
 
Date/Time
EST
Tmp

°C
App
Tmp
°C
Dew
Point
°C
Rel
Hum
%
Delta-T

°C
Wind Press
QNH
hPa
Press
MSL
hPa
Rain
since
9 am
mm
Dir
 
Spd
km/h
Gust
km/h
Spd
kts
Gust
kts
20/11:30pm 14.2 12.1 9.7 74 2.3 S 11 13 6 7 1022.1 - 0.0
20/11:00pm 15.1 13.0 9.9 71 2.7 S 11 15 6 8 1022.2 - 0.0
20/10:30pm 15.7 12.9 9.9 68 3.0 S 15 24 8 13 1022.3 - 0.0
20/10:00pm 16.0 13.2 10.1 68 3.1 S 15 26 8 14 1022.2 - 0.0
20/09:30pm 16.6 13.8 10.1 65 3.4 SSE 15 26 8 14 1022.0 - 0.0
20/09:00pm 17.0 13.8 9.9 63 3.7 SSE 17 33 9 18 1022.0 1022.0 0.0
20/08:30pm 16.5 13.6 9.6 63 3.6 SSE 15 24 8 13 1021.9 - 0.0
20/08:00pm 17.4 14.9 9.8 61 4.0 SE 13 22 7 12 1021.8 - 0.0
20/07:30pm 17.7 15.2 9.7 59 4.2 SE 13 20 7 11 1021.3 - 0.0
20/07:00pm 18.0 15.1 9.8 58 4.3 SE 15 24 8 13 1020.9 - 0.0
20/06:30pm 18.3 15.6 10.4 60 4.2 SE 15 28 8 15 1020.5 - 0.0
20/06:00pm 17.9 15.2 11.7 67 3.4 SE 17 28 9 15 1019.9 1019.9 0.0
20/05:30pm 18.1 15.1 12.1 68 3.3 ESE 19 33 10 18 1019.5 - 0.0
20/05:00pm 18.6 16.3 11.9 65 3.7 ESE 15 32 8 17 1019.1 - 0.0
20/04:30pm 19.1 16.1 12.1 64 3.9 ESE 19 32 10 17 1018.6 - 0.0
20/04:00pm 19.5 16.3 11.9 61 4.2 ESE 20 33 11 18 1018.3 - 0.0
20/03:30pm 20.2 16.7 10.2 52 5.4 ESE 19 33 10 18 1018.1 - 0.0
20/03:00pm 20.0 16.2 11.0 56 4.9 ESE 22 33 12 18 1017.9 1017.9 0.0
20/02:30pm 21.0 17.1 9.4 47 6.2 ESE 20 37 11 20 1018.0 - 0.0
20/02:00pm 20.7 17.2 8.9 46 6.2 ESE 17 28 9 15 1018.1 - 0.0
20/01:30pm 20.8 17.0 9.1 47 6.2 ESE 19 30 10 16 1018.1 - 0.0
20/01:00pm 21.3 17.6 9.5 47 6.3 ESE 19 28 10 15 1018.3 - 0.0
20/12:30pm 20.5 17.1 9.1 48 6.0 E 17 28 9 15 1018.6 - 0.0
20/12:00pm 20.5 17.7 8.7 46 6.2 E 13 20 7 11 1019.0 1019.0 0.0
20/11:30am 20.2 17.9 7.5 43 6.5 ESE 9 19 5 10 1019.2 - 0.0
20/11:00am 20.4 17.0 7.5 43 6.6 SE 15 19 8 10 1019.6 - 0.0
20/10:30am 20.2 16.8 7.5 43 6.5 S 15 26 8 14 1019.8 - 0.0
20/10:00am 19.2 15.3 7.1 45 6.1 SSW 17 24 9 13 1020.0 - 0.0
20/09:30am 18.9 14.6 6.9 45 6.0 SSW 19 28 10 15 1020.1 - 0.0
20/09:00am 18.0 13.5 7.0 48 5.5 SSW 20 28 11 15 1020.0 1020.0 0.0
20/08:30am 17.0 13.2 7.4 53 4.8 SSW 17 22 9 12 1020.0 - 0.0
20/08:00am 15.4 12.3 8.7 64 3.4 SSW 15 17 8 9 1020.0 - 0.0
20/07:30am 13.4 10.7 9.0 75 2.2 SSW 13 17 7 9 1019.6 - 0.0
20/07:00am 12.2 9.3 8.1 76 2.0 SSW 13 15 7 8 1019.5 - 0.0
20/06:30am 9.7 6.6 7.4 85 1.1 SSW 13 17 7 9 1019.2 - 0.0
20/06:00am 10.0 7.3 7.5 84 1.2 SSW 11 15 6 8 1018.6 1018.6 0.0
20/05:30am 10.4 7.7 7.5 82 1.4 SSW 11 13 6 7 1018.3 - 0.0
20/05:00am 11.0 8.0 7.7 80 1.6 SSW 13 15 7 8 1017.7 - 0.0
20/04:30am 11.0 8.6 7.2 77 1.8 SSW 9 11 5 6 1017.5 - 0.0
20/04:00am 12.1 9.9 7.8 75 2.1 SSW 9 11 5 6 1017.2 - 0.0
20/03:30am 11.5 8.9 7.6 77 1.9 SSW 11 15 6 8 1016.7 - 0.0
20/03:00am 12.9 9.9 7.6 70 2.6 SSW 13 15 7 8 1016.7 1016.7 0.0
20/02:30am 12.9 9.9 7.6 70 2.6 SSW 13 17 7 9 1016.8 - 0.0
20/02:00am 12.6 9.5 7.2 69 2.6 SSW 13 15 7 8 1016.8 - 0.0
20/01:30am 12.0 9.6 7.2 72 2.3 SW 9 11 5 6 1016.7 - 0.0
20/01:00am 12.4 10.2 7.7 73 2.3 SSW 9 11 5 6 1016.7 - 0.0
20/12:30am 12.6 10.9 7.4 70 2.5 WSW 6 9 3 5 1016.7 - 0.0
20/12:00am 13.3 11.0 7.3 67 2.9 NW 9 11 5 6 1016.6 1016.6 0.0
 
Date/Time
EST
Tmp

°C
App
Tmp
°C
Dew
Point
°C
Rel
Hum
%
Delta-T

°C
Wind Press
QNH
hPa
Press
MSL
hPa
Rain
since
9 am
mm
Dir
 
Spd
km/h
Gust
km/h
Spd
kts
Gust
kts
19/11:30pm 14.2 12.7 7.0 62 3.5 SSW 4 9 2 5 1016.6 - 0.0
19/11:00pm 12.2 9.8 7.2 71 2.4 SSW 9 13 5 7 1016.6 - 0.0
19/10:30pm 14.4 10.5 7.0 61 3.6 SSW 17 19 9 10 1016.3 - 0.0
19/10:00pm 15.0 11.4 6.8 58 4.0 WSW 15 19 8 10 1016.1 - 0.0
19/09:30pm 16.1 13.1 6.2 52 4.8 WSW 11 15 6 8 1016.0 - 0.0
19/09:00pm 16.1 12.0 6.2 52 4.8 WSW 17 20 9 11 1015.9 1015.9 0.0
19/08:30pm 16.6 12.5 6.4 51 5.0 WSW 17 24 9 13 1015.7 - 0.0
19/08:00pm 16.6 12.5 6.4 51 5.0 WSW 17 24 9 13 1015.5 - 0.0
19/07:30pm 17.3 13.2 6.3 48 5.4 WSW 17 26 9 14 1015.1 - 0.0
19/07:00pm 18.2 13.5 6.0 44 6.0 WSW 20 26 11 14 1014.6 - 0.0
19/06:30pm 18.9 14.2 5.9 42 6.4 WSW 20 28 11 15 1014.2 - 0.0
19/06:00pm 19.4 13.4 5.3 39 6.9 WSW 26 33 14 18 1013.5 1013.5 0.0
19/05:30pm 20.0 13.9 4.8 36 7.4 WSW 26 33 14 18 1012.8 - 0.0
19/05:00pm 20.8 13.4 4.9 35 7.8 WSW 33 44 18 24 1012.2 - 0.0
19/04:30pm 21.5 13.3 4.8 33 8.2 WSW 37 48 20 26 1011.7 - 0.0
19/04:00pm 22.0 14.5 4.7 32 8.5 WSW 33 41 18 22 1011.4 - 0.0
19/03:30pm 22.9 15.6 5.3 32 8.8 W 33 41 18 22 1011.0 - 0.0
19/03:00pm 23.0 15.9 5.5 32 8.8 WSW 32 44 17 24 1010.8 1010.8 0.0
19/02:30pm 23.1 15.8 5.4 31 8.9 W 33 48 18 26 1011.0 - 0.0
19/02:00pm 22.6 16.2 5.4 32 8.6 WSW 28 41 15 22 1011.0 - 0.0
19/01:37pm 22.9 16.6 5.6 32 8.7 WSW 28 46 15 25 1011.1 - 0.0
19/01:30pm 22.6 15.9 5.7 33 8.5 WSW 30 43 16 23 1011.1 - 0.0
19/01:00pm 22.8 17.3 6.1 34 8.5 W 24 35 13 19 1011.3 - 0.0
19/12:30pm 22.3 16.1 6.1 35 8.2 WSW 28 37 15 20 1011.5 - 0.0
19/12:00pm 21.8 15.0 5.3 34 8.2 WSW 30 41 16 22 1012.0 1012.0 0.0
19/11:30am 21.5 16.0 6.0 36 7.8 WSW 24 37 13 20 1012.4 - 0.0
19/11:00am 21.1 14.5 6.2 38 7.5 WSW 30 43 16 23 1012.8 - 0.0
19/10:30am 20.1 12.9 6.0 39 7.0 SW 33 46 18 25 1013.3 - 0.0
19/10:00am 19.7 12.7 6.8 43 6.5 WSW 33 43 18 23 1013.3 - 0.0
19/09:30am 18.9 12.9 7.0 46 6.0 WSW 28 37 15 20 1013.5 - 0.0
19/09:00am 18.1 11.6 6.6 47 5.7 W 30 39 16 21 1013.9 1013.9 0.0
19/08:30am 17.7 12.0 6.9 49 5.4 W 26 33 14 18 1013.7 - 0.0
19/08:00am 16.8 12.5 7.2 53 4.8 W 19 30 10 16 1013.6 - 0.0
19/07:30am 15.7 11.9 7.5 58 4.1 W 17 22 9 12 1013.5 - 0.0
19/07:00am 14.5 10.1 7.4 62 3.5 W 20 26 11 14 1013.0 - 0.0
19/06:30am 14.3 8.7 7.1 62 3.5 WNW 26 32 14 17 1012.9 - 0.0
19/06:00am 13.6 10.5 7.2 65 3.1 WNW 13 22 7 12 1012.7 1012.7 0.0
19/05:30am 14.2 11.4 7.0 62 3.5 WSW 11 19 6 10 1012.1 - 0.0
19/05:00am 14.4 9.1 7.0 61 3.6 W 24 35 13 19 1011.8 - 0.0
19/04:30am 14.7 9.8 6.9 59 3.8 W 22 35 12 19 1011.7 - 0.0
19/04:00am 14.5 10.0 6.9 60 3.7 W 20 32 11 17 1011.6 - 0.0
19/03:30am 14.8 9.5 6.8 58 3.9 W 24 33 13 18 1011.4 - 0.0
19/03:00am 15.1 10.5 6.7 57 4.1 W 20 30 11 16 1011.7 1011.7 0.0
19/02:30am 15.1 11.5 6.7 57 4.1 W 15 22 8 12 1011.7 - 0.0
19/02:00am 15.3 12.4 6.7 56 4.2 W 11 20 6 11 1011.9 - 0.0
19/01:30am 15.7 12.4 6.2 53 4.6 W 13 20 7 11 1012.0 - 0.0
19/01:00am 15.9 11.8 6.0 52 4.8 WSW 17 35 9 19 1012.0 - 0.0
19/12:30am 16.1 13.9 6.2 52 4.8 SSW 7 17 4 9 1012.5 - 0.0
19/12:00am 16.2 13.5 5.8 50 5.0 SW 9 17 5 9 1012.5 1012.5 0.0
 
Date/Time
EST
Tmp

°C
App
Tmp
°C
Dew
Point
°C
Rel
Hum
%
Delta-T

°C
Wind Press
QNH
hPa
Press
MSL
hPa
Rain
since
9 am
mm
Dir
 
Spd
km/h
Gust
km/h
Spd
kts
Gust
kts
18/11:30pm 16.4 12.9 5.6 49 5.2 SW 13 19 7 10 1012.7 - 0.0
18/11:00pm 16.7 12.0 5.2 46 5.5 WSW 19 30 10 16 1012.7 - 0.0
18/10:34pm 16.6 10.2 5.3 47 5.4 WSW 28 46 15 25 1012.5 - 0.0
18/10:30pm 16.6 9.3 5.3 47 5.4 WSW 33 46 18 25 1012.5 - 0.0
18/10:15pm 16.7 9.6 5.5 47 5.4 WSW 32 50 17 27 1012.5 - 0.0
18/10:00pm 16.6 8.1 5.3 47 5.4 W 39 52 21 28 1012.5 - 0.0
18/09:30pm 16.8 9.4 5.1 46 5.6 W 33 44 18 24 1012.4 - 0.0
18/09:00pm 16.7 9.6 5.5 47 5.4 W 32 39 17 21 1012.4 1012.4 0.0
18/08:49pm 16.9 9.7 5.2 46 5.6 WSW 32 50 17 27 1012.3 - 0.0
18/08:30pm 16.6 8.6 5.6 48 5.3 W 37 50 20 27 1012.2 - 0.0

Latest Capital City Observations: Canberra | Sydney | Melbourne | Brisbane | Adelaide | Perth | Hobart | Darwin

Other Formats:

Comma delimited format used in spreadsheet applications
http://www.bom.gov.au/fwo/IDQ60901/IDQ60901.94578.axf

JavaScript Object Notation format (JSON) in row-major order
http://www.bom.gov.au/fwo/IDQ60901/IDQ60901.94578.json